sensor_id;sensor_type;location;lat;lon;timestamp;pressure;altitude;pressure_sealevel;temperature;humidity
62548;BME280;48602;45.192;5.722;2023-02-10T00:01:43;101164.78;;;2.61;58.37
62548;BME280;48602;45.192;5.722;2023-02-10T00:04:11;101169.13;;;2.62;58.35
62548;BME280;48602;45.192;5.722;2023-02-10T00:06:36;101172.59;;;2.61;58.24
62548;BME280;48602;45.192;5.722;2023-02-10T00:09:02;101169.09;;;2.61;58.37
62548;BME280;48602;45.192;5.722;2023-02-10T00:11:28;101167.38;;;2.61;58.23
62548;BME280;48602;45.192;5.722;2023-02-10T00:14:15;101176.06;;;2.62;58.40
62548;BME280;48602;45.192;5.722;2023-02-10T00:16:40;101171.75;;;2.62;58.41
62548;BME280;48602;45.192;5.722;2023-02-10T00:19:07;101181.28;;;2.62;58.71
62548;BME280;48602;45.192;5.722;2023-02-10T00:21:34;101172.53;;;2.60;58.83
62548;BME280;48602;45.192;5.722;2023-02-10T00:24:00;101175.19;;;2.61;58.75
62548;BME280;48602;45.192;5.722;2023-02-10T00:26:26;101169.94;;;2.60;58.86
62548;BME280;48602;45.192;5.722;2023-02-10T00:28:51;101179.47;;;2.59;58.77
62548;BME280;48602;45.192;5.722;2023-02-10T00:31:17;101175.94;;;2.57;59.15
62548;BME280;48602;45.192;5.722;2023-02-10T00:33:46;101176.75;;;2.55;58.93
62548;BME280;48602;45.192;5.722;2023-02-10T00:36:13;101164.53;;;2.52;59.28
62548;BME280;48602;45.192;5.722;2023-02-10T00:38:40;101167.13;;;2.51;59.11
62548;BME280;48602;45.192;5.722;2023-02-10T00:41:14;101168.84;;;2.50;59.41
62548;BME280;48602;45.192;5.722;2023-02-10T00:43:40;101168.75;;;2.47;59.36
62548;BME280;48602;45.192;5.722;2023-02-10T00:46:07;101175.69;;;2.47;59.75
62548;BME280;48602;45.192;5.722;2023-02-10T00:48:33;101166.91;;;2.43;59.32
62548;BME280;48602;45.192;5.722;2023-02-10T00:50:58;101171.19;;;2.41;59.27
62548;BME280;48602;45.192;5.722;2023-02-10T00:53:24;101165.06;;;2.39;59.62
62548;BME280;48602;45.192;5.722;2023-02-10T00:55:49;101162.38;;;2.36;59.63
62548;BME280;48602;45.192;5.722;2023-02-10T00:58:15;101170.19;;;2.34;59.50
62548;BME280;48602;45.192;5.722;2023-02-10T01:00:40;101175.34;;;2.33;59.62
62548;BME280;48602;45.192;5.722;2023-02-10T01:03:06;101164.94;;;2.33;59.54
62548;BME280;48602;45.192;5.722;2023-02-10T01:05:31;101161.41;;;2.31;59.64
62548;BME280;48602;45.192;5.722;2023-02-10T01:07:57;101169.16;;;2.29;59.57
62548;BME280;48602;45.192;5.722;2023-02-10T01:10:22;101173.34;;;2.24;60.37
62548;BME280;48602;45.192;5.722;2023-02-10T01:12:48;101174.09;;;2.20;61.14
62548;BME280;48602;45.192;5.722;2023-02-10T01:15:14;101179.25;;;2.17;60.86
62548;BME280;48602;45.192;5.722;2023-02-10T01:17:39;101173.94;;;2.13;60.51
62548;BME280;48602;45.192;5.722;2023-02-10T01:20:05;101168.59;;;2.08;60.03
62548;BME280;48602;45.192;5.722;2023-02-10T01:22:32;101175.47;;;2.06;59.69
62548;BME280;48602;45.192;5.722;2023-02-10T01:24:58;101168.50;;;2.05;60.15
62548;BME280;48602;45.192;5.722;2023-02-10T01:27:23;101176.31;;;2.05;61.28
62548;BME280;48602;45.192;5.722;2023-02-10T01:29:48;101184.06;;;2.03;61.15
62548;BME280;48602;45.192;5.722;2023-02-10T01:32:14;101180.59;;;2.03;61.23
62548;BME280;48602;45.192;5.722;2023-02-10T01:34:39;101184.91;;;2.02;61.72
62548;BME280;48602;45.192;5.722;2023-02-10T01:37:05;101182.25;;;1.99;61.34
62548;BME280;48602;45.192;5.722;2023-02-10T01:39:30;101186.56;;;1.99;61.09
62548;BME280;48602;45.192;5.722;2023-02-10T01:41:55;101193.47;;;1.98;61.75
62548;BME280;48602;45.192;5.722;2023-02-10T01:46:47;101191.63;;;1.94;61.39
62548;BME280;48602;45.192;5.722;2023-02-10T01:49:21;101183.69;;;1.90;61.35
62548;BME280;48602;45.192;5.722;2023-02-10T01:51:53;101192.31;;;1.89;61.42
62548;BME280;48602;45.192;5.722;2023-02-10T01:54:25;101193.13;;;1.86;61.16
62548;BME280;48602;45.192;5.722;2023-02-10T01:56:52;101193.06;;;1.83;61.64
62548;BME280;48602;45.192;5.722;2023-02-10T01:59:19;101194.78;;;1.83;61.04
62548;BME280;48602;45.192;5.722;2023-02-10T02:01:46;101192.13;;;1.81;61.39
62548;BME280;48602;45.192;5.722;2023-02-10T02:04:11;101190.38;;;1.80;61.02
62548;BME280;48602;45.192;5.722;2023-02-10T02:06:37;101192.03;;;1.78;60.68
62548;BME280;48602;45.192;5.722;2023-02-10T02:09:03;101193.66;;;1.74;61.07
62548;BME280;48602;45.192;5.722;2023-02-10T02:11:49;101189.28;;;1.73;60.78
62548;BME280;48602;45.192;5.722;2023-02-10T02:14:36;101191.91;;;1.73;61.09
62548;BME280;48602;45.192;5.722;2023-02-10T02:33:21;101181.91;;;1.57;61.66
62548;BME280;48602;45.192;5.722;2023-02-10T02:35:53;101185.31;;;1.56;61.69
62548;BME280;48602;45.192;5.722;2023-02-10T02:38:21;101192.16;;;1.53;61.54
62548;BME280;48602;45.192;5.722;2023-02-10T02:40:47;101189.38;;;1.47;61.84
62548;BME280;48602;45.192;5.722;2023-02-10T02:43:12;101180.56;;;1.42;61.75
62548;BME280;48602;45.192;5.722;2023-02-10T02:53:55;101176.09;;;1.37;61.98
62548;BME280;48602;45.192;5.722;2023-02-10T02:59:26;101181.34;;;1.39;61.70
62548;BME280;48602;45.192;5.722;2023-02-10T03:01:58;101178.75;;;1.39;62.32
62548;BME280;48602;45.192;5.722;2023-02-10T03:04:28;101171.75;;;1.36;62.26
62548;BME280;48602;45.192;5.722;2023-02-10T03:06:55;101171.69;;;1.33;62.53
62548;BME280;48602;45.192;5.722;2023-02-10T03:09:21;101175.09;;;1.32;62.41
62548;BME280;48602;45.192;5.722;2023-02-10T03:11:46;101168.16;;;1.31;62.14
62548;BME280;48602;45.192;5.722;2023-02-10T03:14:11;101171.56;;;1.30;62.31
62548;BME280;48602;45.192;5.722;2023-02-10T03:16:37;101174.13;;;1.29;62.11
62548;BME280;48602;45.192;5.722;2023-02-10T03:19:02;101174.91;;;1.26;63.16
62548;BME280;48602;45.192;5.722;2023-02-10T03:21:28;101166.97;;;1.22;63.38
62548;BME280;48602;45.192;5.722;2023-02-10T03:23:53;101165.16;;;1.19;63.16
62548;BME280;48602;45.192;5.722;2023-02-10T03:26:19;101168.59;;;1.18;63.25
62548;BME280;48602;45.192;5.722;2023-02-10T03:28:44;101162.50;;;1.18;63.01
62548;BME280;48602;45.192;5.722;2023-02-10T03:31:09;101175.53;;;1.19;63.21
62548;BME280;48602;45.192;5.722;2023-02-10T03:33:35;101175.53;;;1.19;63.17
62548;BME280;48602;45.192;5.722;2023-02-10T03:36:01;101168.63;;;1.20;63.34
62548;BME280;48602;45.192;5.722;2023-02-10T03:38:27;101164.31;;;1.20;63.35
62548;BME280;48602;45.192;5.722;2023-02-10T03:40:53;101175.53;;;1.19;63.25
62548;BME280;48602;45.192;5.722;2023-02-10T03:43:19;101172.06;;;1.19;63.18
62548;BME280;48602;45.192;5.722;2023-02-10T03:45:44;101169.47;;;1.19;63.16
62548;BME280;48602;45.192;5.722;2023-02-10T03:48:10;101181.56;;;1.18;63.32
62548;BME280;48602;45.192;5.722;2023-02-10T03:50:36;101177.19;;;1.16;63.48
62548;BME280;48602;45.192;5.722;2023-02-10T03:53:02;101183.22;;;1.15;63.00
62548;BME280;48602;45.192;5.722;2023-02-10T03:55:27;101185.72;;;1.12;63.27
62548;BME280;48602;45.192;5.722;2023-02-10T03:57:53;101181.41;;;1.12;63.33
62548;BME280;48602;45.192;5.722;2023-02-10T04:00:18;101189.16;;;1.11;63.25
62548;BME280;48602;45.192;5.722;2023-02-10T04:02:44;101184.78;;;1.10;63.47
62548;BME280;48602;45.192;5.722;2023-02-10T04:05:10;101191.66;;;1.08;63.56
62548;BME280;48602;45.192;5.722;2023-02-10T04:07:35;101189.00;;;1.06;63.43
62548;BME280;48602;45.192;5.722;2023-02-10T04:10:01;101192.38;;;1.03;63.92
62548;BME280;48602;45.192;5.722;2023-02-10T04:12:26;101194.91;;;1.02;63.73
62548;BME280;48602;45.192;5.722;2023-02-10T04:14:51;101189.72;;;1.00;64.13
62548;BME280;48602;45.192;5.722;2023-02-10T04:17:17;101194.81;;;0.97;64.18
62548;BME280;48602;45.192;5.722;2023-02-10T04:19:42;101198.13;;;0.93;64.22
62548;BME280;48602;45.192;5.722;2023-02-10T04:22:08;101203.22;;;0.90;64.29
62548;BME280;48602;45.192;5.722;2023-02-10T04:24:33;101198.91;;;0.91;64.69
62548;BME280;48602;45.192;5.722;2023-02-10T04:26:58;101204.03;;;0.89;64.56
62548;BME280;48602;45.192;5.722;2023-02-10T04:29:24;101210.16;;;0.91;64.45
62548;BME280;48602;45.192;5.722;2023-02-10T04:31:49;101207.56;;;0.91;64.34
62548;BME280;48602;45.192;5.722;2023-02-10T04:34:15;101201.50;;;0.91;64.59
62548;BME280;48602;45.192;5.722;2023-02-10T04:36:40;101197.19;;;0.91;64.42
62548;BME280;48602;45.192;5.722;2023-02-10T04:39:06;101202.44;;;0.93;64.53
62548;BME280;48602;45.192;5.722;2023-02-10T04:41:31;101203.31;;;0.93;64.33
62548;BME280;48602;45.192;5.722;2023-02-10T04:43:57;101207.69;;;0.94;64.10
62548;BME280;48602;45.192;5.722;2023-02-10T04:46:22;101210.31;;;0.96;63.81
62548;BME280;48602;45.192;5.722;2023-02-10T04:48:48;101206.91;;;0.97;64.22
62548;BME280;48602;45.192;5.722;2023-02-10T04:51:13;101205.19;;;0.97;64.01
62548;BME280;48602;45.192;5.722;2023-02-10T04:53:40;101200.78;;;0.95;64.13
62548;BME280;48602;45.192;5.722;2023-02-10T04:56:06;101209.44;;;0.95;64.17
62548;BME280;48602;45.192;5.722;2023-02-10T04:58:32;101205.09;;;0.94;64.08
62548;BME280;48602;45.192;5.722;2023-02-10T05:00:57;101211.09;;;0.93;64.33
62548;BME280;48602;45.192;5.722;2023-02-10T05:03:24;101206.69;;;0.91;64.06
62548;BME280;48602;45.192;5.722;2023-02-10T05:05:50;101208.41;;;0.90;64.21
62548;BME280;48602;45.192;5.722;2023-02-10T05:08:18;101209.25;;;0.89;64.51
62548;BME280;48602;45.192;5.722;2023-02-10T05:10:46;101207.47;;;0.88;63.97
62548;BME280;48602;45.192;5.722;2023-02-10T05:13:12;101207.41;;;0.87;64.69
62548;BME280;48602;45.192;5.722;2023-02-10T05:15:37;101214.31;;;0.86;64.53
62548;BME280;48602;45.192;5.722;2023-02-10T05:18:03;101221.28;;;0.87;64.51
62548;BME280;48602;45.192;5.722;2023-02-10T05:20:28;101213.44;;;0.86;64.42
62548;BME280;48602;45.192;5.722;2023-02-10T05:22:53;101213.38;;;0.83;64.61
62548;BME280;48602;45.192;5.722;2023-02-10T05:25:19;101214.16;;;0.80;64.90
62548;BME280;48602;45.192;5.722;2023-02-10T05:27:44;101215.81;;;0.78;64.89
62548;BME280;48602;45.192;5.722;2023-02-10T05:30:10;101216.59;;;0.76;64.68
62548;BME280;48602;45.192;5.722;2023-02-10T05:32:38;101219.00;;;0.71;64.80
62548;BME280;48602;45.192;5.722;2023-02-10T05:35:04;101229.34;;;0.69;65.13
62548;BME280;48602;45.192;5.722;2023-02-10T05:37:30;101223.22;;;0.67;64.85
62548;BME280;48602;45.192;5.722;2023-02-10T05:39:55;101230.16;;;0.67;64.71
62548;BME280;48602;45.192;5.722;2023-02-10T05:42:21;101221.44;;;0.65;65.08
62548;BME280;48602;45.192;5.722;2023-02-10T05:44:46;101235.25;;;0.64;65.05
62548;BME280;48602;45.192;5.722;2023-02-10T05:47:11;101229.94;;;0.61;64.92
62548;BME280;48602;45.192;5.722;2023-02-10T05:49:37;101235.00;;;0.58;65.17
62548;BME280;48602;45.192;5.722;2023-02-10T05:52:02;101243.56;;;0.55;65.25
62548;BME280;48602;45.192;5.722;2023-02-10T05:54:28;101245.22;;;0.53;65.15
62548;BME280;48602;45.192;5.722;2023-02-10T05:56:54;101249.47;;;0.50;65.30
62548;BME280;48602;45.192;5.722;2023-02-10T05:59:20;101252.81;;;0.47;65.46
62548;BME280;48602;45.192;5.722;2023-02-10T06:01:45;101250.19;;;0.46;65.57
62548;BME280;48602;45.192;5.722;2023-02-10T06:04:11;101250.19;;;0.46;65.70
62548;BME280;48602;45.192;5.722;2023-02-10T06:06:36;101261.38;;;0.45;65.60
62548;BME280;48602;45.192;5.722;2023-02-10T06:09:02;101269.16;;;0.45;65.93
62548;BME280;48602;45.192;5.722;2023-02-10T06:11:28;101271.66;;;0.42;65.71
62548;BME280;48602;45.192;5.722;2023-02-10T06:13:54;101265.56;;;0.41;65.91
62548;BME280;48602;45.192;5.722;2023-02-10T06:16:19;101267.28;;;0.41;66.02
62548;BME280;48602;45.192;5.722;2023-02-10T06:18:45;101260.28;;;0.38;66.13
62548;BME280;48602;45.192;5.722;2023-02-10T06:21:13;101268.16;;;0.41;66.16
62548;BME280;48602;45.192;5.722;2023-02-10T06:23:38;101272.41;;;0.39;66.21
62548;BME280;48602;45.192;5.722;2023-02-10T06:26:03;101275.00;;;0.39;66.19
62548;BME280;48602;45.192;5.722;2023-02-10T06:28:29;101275.91;;;0.40;66.08
62548;BME280;48602;45.192;5.722;2023-02-10T06:30:55;101276.72;;;0.39;66.10
62548;BME280;48602;45.192;5.722;2023-02-10T06:33:21;101271.47;;;0.37;66.25
62548;BME280;48602;45.192;5.722;2023-02-10T06:35:47;101277.53;;;0.38;66.34
62548;BME280;48602;45.192;5.722;2023-02-10T06:38:12;101281.91;;;0.39;66.14
62548;BME280;48602;45.192;5.722;2023-02-10T06:40:38;101277.53;;;0.38;66.00
62548;BME280;48602;45.192;5.722;2023-02-10T06:43:03;101281.03;;;0.38;66.07
62548;BME280;48602;45.192;5.722;2023-02-10T06:45:28;101278.38;;;0.37;65.80
62548;BME280;48602;45.192;5.722;2023-02-10T06:47:54;101288.81;;;0.38;65.95
62548;BME280;48602;45.192;5.722;2023-02-10T06:50:20;101285.31;;;0.38;65.71
62548;BME280;48602;45.192;5.722;2023-02-10T06:52:46;101292.34;;;0.40;65.97
62548;BME280;48602;45.192;5.722;2023-02-10T06:55:11;101296.66;;;0.40;65.85
62548;BME280;48602;45.192;5.722;2023-02-10T06:57:37;101302.78;;;0.42;65.69
62548;BME280;48602;45.192;5.722;2023-02-10T07:00:09;101303.66;;;0.42;65.77
62548;BME280;48602;45.192;5.722;2023-02-10T07:02:35;101309.72;;;0.43;65.83
62548;BME280;48602;45.192;5.722;2023-02-10T07:05:01;101303.66;;;0.42;66.10
62548;BME280;48602;45.192;5.722;2023-02-10T07:07:29;101308.84;;;0.42;66.04
62548;BME280;48602;45.192;5.722;2023-02-10T07:09:55;101314.94;;;0.43;65.82
62548;BME280;48602;45.192;5.722;2023-02-10T07:12:20;101303.72;;;0.44;66.34
62548;BME280;48602;45.192;5.722;2023-02-10T07:14:46;101312.44;;;0.46;66.04
62548;BME280;48602;45.192;5.722;2023-02-10T07:17:11;101312.50;;;0.47;65.92
62548;BME280;48602;45.192;5.722;2023-02-10T07:19:37;101320.44;;;0.52;66.14
62548;BME280;48602;45.192;5.722;2023-02-10T07:22:02;101314.41;;;0.53;66.05
62548;BME280;48602;45.192;5.722;2023-02-10T07:24:30;101312.81;;;0.56;66.02
62548;BME280;48602;45.192;5.722;2023-02-10T07:26:56;101314.59;;;0.57;65.98
62548;BME280;48602;45.192;5.722;2023-02-10T07:29:22;101316.41;;;0.60;65.99
62548;BME280;48602;45.192;5.722;2023-02-10T07:31:47;101313.81;;;0.60;65.96
62548;BME280;48602;45.192;5.722;2023-02-10T07:34:12;101322.53;;;0.62;65.85
62548;BME280;48602;45.192;5.722;2023-02-10T07:36:38;101327.84;;;0.65;66.01
62548;BME280;48602;45.192;5.722;2023-02-10T07:39:03;101330.53;;;0.68;66.14
62548;BME280;48602;45.192;5.722;2023-02-10T07:41:28;101331.47;;;0.70;66.04
62548;BME280;48602;45.192;5.722;2023-02-10T07:43:54;101334.22;;;0.75;65.83
62548;BME280;48602;45.192;5.722;2023-02-10T07:46:19;101329.97;;;0.77;65.67
62548;BME280;48602;45.192;5.722;2023-02-10T07:48:45;101334.38;;;0.79;65.50
62548;BME280;48602;45.192;5.722;2023-02-10T07:51:10;101326.72;;;0.82;65.59
62548;BME280;48602;45.192;5.722;2023-02-10T07:53:36;101331.97;;;0.84;65.40
62548;BME280;48602;45.192;5.722;2023-02-10T07:56:03;101335.56;;;0.89;65.50
62548;BME280;48602;45.192;5.722;2023-02-10T07:58:28;101334.81;;;0.91;65.42
62548;BME280;48602;45.192;5.722;2023-02-10T08:00:55;101331.38;;;0.92;65.15
62548;BME280;48602;45.192;5.722;2023-02-10T08:03:21;101334.97;;;0.96;65.11
62548;BME280;48602;45.192;5.722;2023-02-10T08:05:46;101332.53;;;1.00;64.79
62548;BME280;48602;45.192;5.722;2023-02-10T08:08:15;101336.97;;;1.04;64.18
62548;BME280;48602;45.192;5.722;2023-02-10T08:10:41;101333.56;;;1.05;64.17
62548;BME280;48602;45.192;5.722;2023-02-10T08:13:07;101330.22;;;1.10;64.41
62548;BME280;48602;45.192;5.722;2023-02-10T08:15:33;101329.56;;;1.15;64.19
62548;BME280;48602;45.192;5.722;2023-02-10T08:17:59;101330.56;;;1.20;64.25
62548;BME280;48602;45.192;5.722;2023-02-10T08:20:25;101338.59;;;1.26;64.00
62548;BME280;48602;45.192;5.722;2023-02-10T08:22:54;101334.44;;;1.31;63.99
62548;BME280;48602;45.192;5.722;2023-02-10T08:25:20;101335.38;;;1.33;64.27
62548;BME280;48602;45.192;5.722;2023-02-10T08:27:46;101327.69;;;1.38;64.42
62548;BME280;48602;45.192;5.722;2023-02-10T08:30:11;101333.94;;;1.43;64.27
62548;BME280;48602;45.192;5.722;2023-02-10T08:32:37;101333.16;;;1.46;63.94
62548;BME280;48602;45.192;5.722;2023-02-10T08:35:03;101338.41;;;1.47;63.95
62548;BME280;48602;45.192;5.722;2023-02-10T08:37:29;101341.13;;;1.50;64.04
62548;BME280;48602;45.192;5.722;2023-02-10T08:39:54;101346.38;;;1.53;63.99
62548;BME280;48602;45.192;5.722;2023-02-10T08:42:20;101345.69;;;1.59;63.93
62548;BME280;48602;45.192;5.722;2023-02-10T08:44:45;101341.53;;;1.64;63.55
62548;BME280;48602;45.192;5.722;2023-02-10T08:47:11;101345.13;;;1.67;63.37
62548;BME280;48602;45.192;5.722;2023-02-10T08:49:40;101343.44;;;1.69;63.72
62548;BME280;48602;45.192;5.722;2023-02-10T08:52:05;101346.97;;;1.71;63.57
62548;BME280;48602;45.192;5.722;2023-02-10T08:54:31;101349.78;;;1.78;63.26
62548;BME280;48602;45.192;5.722;2023-02-10T08:56:56;101343.00;;;1.83;63.07
62548;BME280;48602;45.192;5.722;2023-02-10T08:59:22;101343.13;;;1.87;63.15
62548;BME280;48602;45.192;5.722;2023-02-10T09:01:47;101340.72;;;1.93;62.47
62548;BME280;48602;45.192;5.722;2023-02-10T09:04:12;101339.16;;;1.98;62.68
62548;BME280;48602;45.192;5.722;2023-02-10T09:06:39;101344.56;;;2.06;62.23
62548;BME280;48602;45.192;5.722;2023-02-10T09:09:09;101342.09;;;2.10;62.12
62548;BME280;48602;45.192;5.722;2023-02-10T09:11:34;101328.31;;;2.13;61.80
62548;BME280;48602;45.192;5.722;2023-02-10T09:14:00;101338.88;;;2.19;61.75
62548;BME280;48602;45.192;5.722;2023-02-10T09:16:26;101334.75;;;2.26;61.68
62548;BME280;48602;45.192;5.722;2023-02-10T09:18:51;101334.03;;;2.31;61.00
62548;BME280;48602;45.192;5.722;2023-02-10T09:21:17;101325.56;;;2.38;61.48
62548;BME280;48602;45.192;5.722;2023-02-10T09:23:42;101329.22;;;2.45;61.35
62548;BME280;48602;45.192;5.722;2023-02-10T09:26:08;101332.00;;;2.51;61.25
62548;BME280;48602;45.192;5.722;2023-02-10T09:28:34;101331.31;;;2.58;61.00
62548;BME280;48602;45.192;5.722;2023-02-10T09:30:59;101329.78;;;2.65;60.44
62548;BME280;48602;45.192;5.722;2023-02-10T09:33:25;101329.03;;;2.70;60.57
62548;BME280;48602;45.192;5.722;2023-02-10T09:35:51;101331.81;;;2.76;60.41
62548;BME280;48602;45.192;5.722;2023-02-10T09:38:16;101325.13;;;2.85;60.41
62548;BME280;48602;45.192;5.722;2023-02-10T09:46:36;101322.16;;;3.05;59.75
62548;BME280;48602;45.192;5.722;2023-02-10T09:52:02;101322.56;;;3.22;59.44
62548;BME280;48602;45.192;5.722;2023-02-10T09:54:30;101322.78;;;3.30;58.60
62548;BME280;48602;45.192;5.722;2023-02-10T09:57:04;101324.72;;;3.38;58.93
62548;BME280;48602;45.192;5.722;2023-02-10T09:59:34;101324.03;;;3.45;58.56
62548;BME280;48602;45.192;5.722;2023-02-10T10:02:10;101327.69;;;3.54;57.91
62548;BME280;48602;45.192;5.722;2023-02-10T10:04:37;101322.66;;;3.61;57.67
62548;BME280;48602;45.192;5.722;2023-02-10T10:07:26;101334.19;;;3.71;57.51
62548;BME280;48602;45.192;5.722;2023-02-10T10:10:02;101331.72;;;3.77;57.01
62548;BME280;48602;45.192;5.722;2023-02-10T10:12:29;101331.91;;;3.84;56.84
62548;BME280;48602;45.192;5.722;2023-02-10T10:14:55;101332.91;;;3.91;56.65
62548;BME280;48602;45.192;5.722;2023-02-10T10:31:26;101335.59;;;4.36;54.52
62548;BME280;48602;45.192;5.722;2023-02-10T10:34:01;101337.53;;;4.45;53.83
62548;BME280;48602;45.192;5.722;2023-02-10T10:39:30;101332.59;;;4.59;53.78
62548;BME280;48602;45.192;5.722;2023-02-10T10:42:01;101331.88;;;4.66;53.75
62548;BME280;48602;45.192;5.722;2023-02-10T10:44:29;101329.38;;;4.73;52.82
62548;BME280;48602;45.192;5.722;2023-02-10T10:47:04;101331.28;;;4.80;52.47
62548;BME280;48602;45.192;5.722;2023-02-10T10:49:35;101330.47;;;4.83;52.75
62548;BME280;48602;45.192;5.722;2023-02-10T10:52:01;101328.81;;;4.89;52.97
62548;BME280;48602;45.192;5.722;2023-02-10T10:54:27;101317.53;;;4.92;52.31
62548;BME280;48602;45.192;5.722;2023-02-10T10:56:56;101322.88;;;4.97;52.22
62548;BME280;48602;45.192;5.722;2023-02-10T10:59:34;101328.22;;;5.04;52.95
62548;BME280;48602;45.192;5.722;2023-02-10T11:02:18;101328.28;;;5.09;52.14
62548;BME280;48602;45.192;5.722;2023-02-10T11:04:44;101317.94;;;5.13;52.03
62548;BME280;48602;45.192;5.722;2023-02-10T11:07:18;101317.16;;;5.20;51.68
62548;BME280;48602;45.192;5.722;2023-02-10T11:09:50;101313.75;;;5.24;50.92
62548;BME280;48602;45.192;5.722;2023-02-10T11:12:24;101313.84;;;5.31;51.20
62548;BME280;48602;45.192;5.722;2023-02-10T11:14:52;101312.22;;;5.36;50.62
62548;BME280;48602;45.192;5.722;2023-02-10T11:17:34;101314.91;;;5.42;50.37
62548;BME280;48602;45.192;5.722;2023-02-10T11:20:04;101311.47;;;5.46;50.71
62548;BME280;48602;45.192;5.722;2023-02-10T11:22:30;101312.41;;;5.49;51.26
62548;BME280;48602;45.192;5.722;2023-02-10T11:24:58;101314.19;;;5.50;50.90
62548;BME280;48602;45.192;5.722;2023-02-10T11:27:24;101311.59;;;5.52;49.85
62548;BME280;48602;45.192;5.722;2023-02-10T11:29:53;101308.16;;;5.57;49.56
62548;BME280;48602;45.192;5.722;2023-02-10T11:32:25;101306.53;;;5.64;50.58
62548;BME280;48602;45.192;5.722;2023-02-10T11:34:54;101306.63;;;5.69;49.96
62548;BME280;48602;45.192;5.722;2023-02-10T11:39:53;101299.81;;;5.81;49.63
62548;BME280;48602;45.192;5.722;2023-02-10T11:42:24;101291.13;;;5.87;49.86
62548;BME280;48602;45.192;5.722;2023-02-10T11:47:36;101286.09;;;5.96;49.31
62548;BME280;48602;45.192;5.722;2023-02-10T11:50:04;101288.75;;;5.99;48.91
62548;BME280;48602;45.192;5.722;2023-02-10T11:52:36;101270.47;;;6.05;48.75
62548;BME280;48602;45.192;5.722;2023-02-10T11:55:02;101276.66;;;6.10;48.44
62548;BME280;48602;45.192;5.722;2023-02-10T12:03:33;101261.13;;;6.25;48.08
62548;BME280;48602;45.192;5.722;2023-02-10T12:11:46;101234.22;;;6.40;46.49
62548;BME280;48602;45.192;5.722;2023-02-10T12:17:30;101234.28;;;6.45;47.05
62548;BME280;48602;45.192;5.722;2023-02-10T12:25:27;101223.00;;;6.50;45.94
62548;BME280;48602;45.192;5.722;2023-02-10T12:45:02;101214.44;;;6.71;46.21
62548;BME280;48602;45.192;5.722;2023-02-10T12:47:54;101204.84;;;6.73;47.10
62548;BME280;48602;45.192;5.722;2023-02-10T12:56:01;101207.56;;;6.81;46.76
62548;BME280;48602;45.192;5.722;2023-02-10T12:58:34;101206.72;;;6.83;46.36
62548;BME280;48602;45.192;5.722;2023-02-10T13:03:59;101198.03;;;6.92;47.17
62548;BME280;48602;45.192;5.722;2023-02-10T13:06:37;101203.28;;;6.95;46.31
62548;BME280;48602;45.192;5.722;2023-02-10T13:12:15;101205.91;;;6.95;45.95
62548;BME280;48602;45.192;5.722;2023-02-10T13:14:45;101202.38;;;6.91;46.99
62548;BME280;48602;45.192;5.722;2023-02-10T13:17:12;101196.28;;;6.92;46.13
62548;BME280;48602;45.192;5.722;2023-02-10T13:19:57;101201.50;;;6.91;45.04
62548;BME280;48602;45.192;5.722;2023-02-10T13:25:18;101192.75;;;6.89;45.77
62548;BME280;48602;45.192;5.722;2023-02-10T13:35:59;101195.41;;;6.93;45.55
62548;BME280;48602;45.192;5.722;2023-02-10T13:38:24;101195.44;;;6.95;45.17
62548;BME280;48602;45.192;5.722;2023-02-10T13:40:56;101194.59;;;6.97;45.08
62548;BME280;48602;45.192;5.722;2023-02-10T13:43:43;101190.25;;;7.03;44.54
62548;BME280;48602;45.192;5.722;2023-02-10T13:46:29;101190.28;;;7.07;45.25
62548;BME280;48602;45.192;5.722;2023-02-10T13:48:58;101171.94;;;7.12;46.22
62548;BME280;48602;45.192;5.722;2023-02-10T13:51:35;101181.59;;;7.16;44.55
62548;BME280;48602;45.192;5.722;2023-02-10T13:54:03;101179.88;;;7.19;45.59
62548;BME280;48602;45.192;5.722;2023-02-10T13:56:32;101169.38;;;7.21;45.93
62548;BME280;48602;45.192;5.722;2023-02-10T14:01:48;101171.19;;;7.29;44.27
62548;BME280;48602;45.192;5.722;2023-02-10T14:06:47;101174.72;;;7.34;44.18
62548;BME280;48602;45.192;5.722;2023-02-10T14:09:40;101174.72;;;7.39;45.03
62548;BME280;48602;45.192;5.722;2023-02-10T14:12:23;101166.88;;;7.42;44.93
62548;BME280;48602;45.192;5.722;2023-02-10T14:14:49;101159.91;;;7.46;45.56
62548;BME280;48602;45.192;5.722;2023-02-10T14:17:23;101171.34;;;7.52;46.07
62548;BME280;48602;45.192;5.722;2023-02-10T14:19:54;101166.97;;;7.57;45.71
62548;BME280;48602;45.192;5.722;2023-02-10T14:24:57;101163.53;;;7.69;46.26
62548;BME280;48602;45.192;5.722;2023-02-10T14:27:26;101156.53;;;7.71;46.19
62548;BME280;48602;45.192;5.722;2023-02-10T14:29:55;101164.41;;;7.76;45.95
62548;BME280;48602;45.192;5.722;2023-02-10T14:32:21;101168.81;;;7.77;45.49
62548;BME280;48602;45.192;5.722;2023-02-10T14:35:02;101160.06;;;7.79;45.80
62548;BME280;48602;45.192;5.722;2023-02-10T14:37:31;101162.72;;;7.84;46.15
62548;BME280;48602;45.192;5.722;2023-02-10T14:39:59;101160.09;;;7.91;45.53
62548;BME280;48602;45.192;5.722;2023-02-10T14:42:27;101161.00;;;7.93;45.85
62548;BME280;48602;45.192;5.722;2023-02-10T14:44:56;101161.88;;;7.98;45.39
62548;BME280;48602;45.192;5.722;2023-02-10T14:47:38;101157.53;;;8.02;45.65
62548;BME280;48602;45.192;5.722;2023-02-10T14:50:22;101161.03;;;8.04;46.23
62548;BME280;48602;45.192;5.722;2023-02-10T14:52:48;101155.78;;;8.09;45.95
62548;BME280;48602;45.192;5.722;2023-02-10T14:57:51;101167.16;;;8.11;45.76
62548;BME280;48602;45.192;5.722;2023-02-10T15:00:17;101156.66;;;8.09;46.08
62548;BME280;48602;45.192;5.722;2023-02-10T15:02:56;101168.03;;;8.08;46.00
62548;BME280;48602;45.192;5.722;2023-02-10T15:05:23;101166.28;;;8.05;45.21
62548;BME280;48602;45.192;5.722;2023-02-10T15:07:54;101171.53;;;8.05;45.99
62548;BME280;48602;45.192;5.722;2023-02-10T15:12:48;101160.16;;;8.08;46.43
62548;BME280;48602;45.192;5.722;2023-02-10T15:17:54;101160.16;;;8.11;46.17
62548;BME280;48602;45.192;5.722;2023-02-10T15:20:32;101156.66;;;8.12;46.03